Time;durP1;ratioP1;P1;durP2;ratioP2;P2;SDS_P1;SDS_P2;PMS_P1;PMS_P2;Temp;Humidity;BMP_temperature;BMP_pressure;BME280_temperature;BME280_humidity;BME280_pressure;Samples;Min_cycle;Max_cycle;Signal;HPM_P1;HPM_P2
2021/05/30 00:00:31;;;;;;;;;;;;;;;12.64;91.92;93216.50;5069374;28;19927;-81
2021/05/30 00:02:57;;;;;;;;;;;;;;;12.63;92.14;93214.94;5069384;28;19950;-81
2021/05/30 00:05:24;;;;;;;;;;;;;;;12.59;92.79;93214.56;5069706;28;19978;-81
2021/05/30 00:07:50;;;;;;;;;;;;;;;12.63;92.50;93210.56;5069309;28;19924;-81
2021/05/30 00:10:16;;;;;;;;;;;;;;;12.56;93.31;93204.72;5069531;28;19927;-81
2021/05/30 00:12:42;;;;;;;;;;;;;;;12.52;93.94;93212.13;5069475;28;19928;-81
2021/05/30 00:15:10;;;;;;;;;;;;;;;12.52;94.67;93219.06;5069797;28;19932;-81
2021/05/30 00:17:36;;;;;;;;;;;;;;;12.68;93.68;93213.25;5069693;28;19921;-82
2021/05/30 00:20:03;;;;;;;;;;;;;;;12.54;94.76;93217.81;5069833;28;20383;-81
2021/05/30 00:22:30;;;;;;;;;;;;;;;12.44;95.09;93209.84;5069595;28;19921;-81
2021/05/30 00:24:56;;;;;;;;;;;;;;;12.46;94.25;93210.44;5069612;28;19920;-81
2021/05/30 00:27:22;;;;;;;;;;;;;;;12.51;94.60;93214.91;5069694;28;19927;-80
2021/05/30 00:29:48;;;;;;;;;;;;;;;12.45;94.89;93210.66;5069376;28;20524;-81
2021/05/30 00:32:14;;;;;;;;;;;;;;;12.45;95.43;93213.22;5069644;28;19924;-81
2021/05/30 00:34:40;;;;;;;;;;;;;;;12.35;95.12;93214.53;5069220;28;19920;-80
2021/05/30 00:37:06;;;;;;;;;;;;;;;12.28;95.49;93212.03;5072365;28;19927;-80
2021/05/30 00:39:33;;;;;;;;;;;;;;;12.25;96.32;93203.97;5073151;28;19924;-81
2021/05/30 00:41:59;;;;;;;;;;;;;;;12.21;96.26;93210.59;5073239;28;19947;-81
2021/05/30 00:44:26;;;;;;;;;;;;;;;12.10;96.08;93206.97;5072881;28;20439;-81
2021/05/30 00:46:53;;;;;;;;;;;;;;;12.11;96.47;93211.09;5072900;28;19973;-81
2021/05/30 00:49:19;;;;;;;;;;;;;;;12.07;97.31;93217.72;5072905;28;19924;-81
2021/05/30 00:51:46;;;;;;;;;;;;;;;12.08;98.06;93219.28;5072767;28;20281;-81
2021/05/30 00:54:12;;;;;;;;;;;;;;;12.01;97.15;93219.31;5072732;28;19978;-81
2021/05/30 00:56:40;;;;;;;;;;;;;;;11.97;97.50;93218.97;5072813;28;19931;-81
2021/05/30 00:59:06;;;;;;;;;;;;;;;11.95;98.40;93217.63;5072321;28;19921;-81
2021/05/30 01:01:33;;;;;;;;;;;;;;;11.91;98.33;93217.28;5072718;28;20391;-81
2021/05/30 01:03:59;;;;;;;;;;;;;;;11.89;98.30;93220.06;5072715;28;20277;-80
2021/05/30 01:06:25;;;;;;;;;;;;;;;11.85;99.58;93225.88;5072729;28;19939;-80
2021/05/30 01:08:51;;;;;;;;;;;;;;;11.81;99.38;93229.88;5072499;28;20375;-80
2021/05/30 01:11:17;;;;;;;;;;;;;;;11.80;99.07;93225.72;5072715;28;19924;-80
2021/05/30 01:13:45;;;;;;;;;;;;;;;11.77;98.35;93222.56;5072329;28;20332;-80
2021/05/30 01:16:13;;;;;;;;;;;;;;;11.75;98.82;93218.63;5072384;28;19967;-80
2021/05/30 01:18:39;;;;;;;;;;;;;;;11.72;98.54;93221.66;5072488;28;19924;-80
2021/05/30 01:21:06;;;;;;;;;;;;;;;11.70;99.12;93224.44;5072014;28;19921;-80
2021/05/30 01:23:33;;;;;;;;;;;;;;;11.65;98.10;93223.50;5072252;28;20014;-80
2021/05/30 01:25:59;;;;;;;;;;;;;;;11.59;98.59;93218.25;5072452;28;19920;-80
2021/05/30 01:28:25;;;;;;;;;;;;;;;11.57;98.74;93232.31;5071903;28;19928;-80
2021/05/30 01:30:51;;;;;;;;;;;;;;;11.50;98.64;93232.38;5072444;28;19924;-79
2021/05/30 01:33:18;;;;;;;;;;;;;;;11.46;99.25;93223.50;5071998;28;20393;-80
2021/05/30 01:35:44;;;;;;;;;;;;;;;11.33;99.07;93225.22;5071965;28;20529;-79
2021/05/30 01:38:10;;;;;;;;;;;;;;;11.30;99.67;93212.03;5072249;28;20244;-78
2021/05/30 01:40:37;;;;;;;;;;;;;;;11.22;98.84;93211.28;5071905;28;19928;-79
2021/05/30 01:43:03;;;;;;;;;;;;;;;11.24;98.59;93213.66;5072206;28;19994;-78
2021/05/30 01:45:30;;;;;;;;;;;;;;;11.20;99.13;93215.84;5071863;28;19927;-78
2021/05/30 01:47:57;;;;;;;;;;;;;;;11.22;99.67;93213.84;5071808;28;19943;-78
2021/05/30 01:50:23;;;;;;;;;;;;;;;11.23;100.00;93209.50;5071939;28;19920;-78
2021/05/30 01:52:50;;;;;;;;;;;;;;;11.18;100.00;93207.59;5071967;28;19924;-78
2021/05/30 01:55:22;;;;;;;;;;;;;;;11.17;100.00;93208.59;5071956;28;19921;-78
2021/05/30 01:57:49;;;;;;;;;;;;;;;11.15;100.00;93205.44;5071651;28;19950;-78
2021/05/30 02:00:16;;;;;;;;;;;;;;;11.16;100.00;93199.28;5071480;28;19920;-79
2021/05/30 02:02:44;;;;;;;;;;;;;;;11.20;100.00;93208.16;5071841;28;19924;-79
2021/05/30 02:05:11;;;;;;;;;;;;;;;11.15;100.00;93213.13;5071790;28;19924;-79
2021/05/30 02:07:39;;;;;;;;;;;;;;;11.14;100.00;93205.63;5071355;28;19920;-79
2021/05/30 02:10:05;;;;;;;;;;;;;;;11.13;100.00;93204.88;5071455;28;20368;-79
2021/05/30 02:12:33;;;;;;;;;;;;;;;11.12;100.00;93205.88;5071495;28;19921;-79
2021/05/30 02:15:00;;;;;;;;;;;;;;;11.12;100.00;93203.31;5071136;28;20380;-78
2021/05/30 02:17:26;;;;;;;;;;;;;;;11.06;100.00;93199.00;5071071;28;19920;-79
2021/05/30 02:19:53;;;;;;;;;;;;;;;11.14;100.00;93205.63;5071088;28;19920;-79
2021/05/30 02:22:19;;;;;;;;;;;;;;;11.16;99.50;93201.84;5071377;28;19920;-79
2021/05/30 02:24:45;;;;;;;;;;;;;;;11.12;99.76;93205.88;5071151;28;20421;-78
2021/05/30 02:27:11;;;;;;;;;;;;;;;11.09;100.00;93201.94;5071285;28;19932;-77
2021/05/30 02:29:38;;;;;;;;;;;;;;;11.06;100.00;93215.19;5071210;28;19970;-78
2021/05/30 02:32:07;;;;;;;;;;;;;;;11.04;100.00;93208.69;5070728;28;19924;-78
2021/05/30 02:34:33;;;;;;;;;;;;;;;10.96;100.00;93215.69;5070885;28;19955;-78
2021/05/30 02:37:00;;;;;;;;;;;;;;;10.94;100.00;93211.75;5071112;28;19921;-77
2021/05/30 02:39:26;;;;;;;;;;;;;;;10.93;100.00;93210.19;5070782;28;19921;-78
2021/05/30 02:41:52;;;;;;;;;;;;;;;10.90;100.00;93218.31;5071034;28;19993;-78
2021/05/30 02:44:18;;;;;;;;;;;;;;;10.83;100.00;93208.09;5070574;28;20368;-78
2021/05/30 02:46:44;;;;;;;;;;;;;;;10.83;100.00;93208.09;5070475;28;19928;-78
2021/05/30 02:49:11;;;;;;;;;;;;;;;10.79;100.00;93212.84;5070806;28;19925;-78
2021/05/30 02:51:38;;;;;;;;;;;;;;;10.82;100.00;93216.78;5070716;28;19920;-79
2021/05/30 02:54:04;;;;;;;;;;;;;;;10.78;100.00;93215.66;5070599;28;19924;-79
2021/05/30 02:56:30;;;;;;;;;;;;;;;10.66;100.00;93216.31;5070647;28;19943;-78
2021/05/30 02:58:56;;;;;;;;;;;;;;;10.58;100.00;93216.59;5069801;28;19921;-78
2021/05/30 03:01:22;;;;;;;;;;;;;;;10.58;100.00;93216.59;5070531;28;19970;-78
2021/05/30 03:03:49;;;;;;;;;;;;;;;10.55;100.00;93214.44;5046303;28;19921;-78
2021/05/30 03:06:16;;;;;;;;;;;;;;;10.53;100.00;93213.84;5048875;28;19972;-79
2021/05/30 03:08:42;;;;;;;;;;;;;;;10.54;100.00;93212.84;5050429;28;19928;-79
2021/05/30 03:11:09;;;;;;;;;;;;;;;10.60;100.00;93216.38;5050768;28;19920;-79
2021/05/30 03:13:35;;;;;;;;;;;;;;;10.49;100.00;93195.53;5050319;28;20003;-79
2021/05/30 03:16:01;;;;;;;;;;;;;;;10.60;100.00;93213.81;5049987;28;20280;-79
2021/05/30 03:18:27;;;;;;;;;;;;;;;10.58;100.00;93208.88;5050078;28;19928;-78
2021/05/30 03:20:53;;;;;;;;;;;;;;;10.58;100.00;93214.03;5049909;28;20384;-78
2021/05/30 03:23:20;;;;;;;;;;;;;;;10.59;100.00;93212.25;5049845;28;19921;-78
2021/05/30 03:25:46;;;;;;;;;;;;;;;10.55;100.00;93211.84;5049871;28;19959;-78
2021/05/30 03:28:12;;;;;;;;;;;;;;;10.50;100.00;93204.78;5050171;28;19920;-78
2021/05/30 03:30:38;;;;;;;;;;;;;;;10.53;100.00;93206.16;5050139;28;21160;-78
2021/05/30 03:33:04;;;;;;;;;;;;;;;10.53;100.00;93201.81;5049893;28;19931;-78
2021/05/30 03:35:31;;;;;;;;;;;;;;;10.51;100.00;93206.34;5049642;28;19921;-78
2021/05/30 03:37:58;;;;;;;;;;;;;;;10.55;100.00;93209.28;5050060;28;19924;-79
2021/05/30 03:40:29;;;;;;;;;;;;;;;10.58;100.00;93213.22;5049768;28;19925;-79
2021/05/30 03:42:55;;;;;;;;;;;;;;;10.64;100.00;93210.63;5049744;28;20430;-79
2021/05/30 03:45:22;;;;;;;;;;;;;;;10.64;100.00;93215.75;5049671;28;20383;-79
2021/05/30 03:47:48;;;;;;;;;;;;;;;10.68;100.00;93219.47;5049877;28;19925;-79
2021/05/30 03:50:14;;;;;;;;;;;;;;;10.71;100.00;93217.47;5049562;28;20372;-79
2021/05/30 03:52:40;;;;;;;;;;;;;;;10.74;100.00;93210.13;5049928;28;19920;-78
2021/05/30 03:55:07;;;;;;;;;;;;;;;10.72;100.00;93216.47;5049629;28;19924;-79
2021/05/30 03:57:34;;;;;;;;;;;;;;;10.73;100.00;93216.28;5049898;28;19921;-79
2021/05/30 04:00:00;;;;;;;;;;;;;;;10.81;100.00;93216.03;5048884;28;19958;-79
2021/05/30 04:02:27;;;;;;;;;;;;;;;10.91;100.00;93222.44;5048884;28;19933;-79
2021/05/30 04:04:53;;;;;;;;;;;;;;;10.95;100.00;93218.47;5049082;28;19950;-79
2021/05/30 04:07:19;;;;;;;;;;;;;;;11.00;100.00;93220.41;5049539;28;19921;-79
2021/05/30 04:09:45;;;;;;;;;;;;;;;11.03;100.00;93218.22;5050537;28;20050;-79
2021/05/30 04:12:11;;;;;;;;;;;;;;;11.12;100.00;93215.34;5053588;28;19921;-79
2021/05/30 04:14:38;;;;;;;;;;;;;;;11.20;100.00;93212.53;5053445;28;19921;-78
2021/05/30 04:17:04;;;;;;;;;;;;;;;11.27;99.56;93215.81;5050596;28;20388;-79
2021/05/30 04:19:30;;;;;;;;;;;;;;;11.35;99.03;93212.16;5052304;28;19924;-79
2021/05/30 04:21:56;;;;;;;;;;;;;;;11.43;98.90;93211.88;5053305;28;19921;-79
2021/05/30 04:24:22;;;;;;;;;;;;;;;11.50;97.96;93211.81;5066496;28;19982;-78
2021/05/30 04:26:48;;;;;;;;;;;;;;;11.57;97.08;93220.22;5056728;28;19932;-77
2021/05/30 04:29:14;;;;;;;;;;;;;;;11.63;96.89;93216.78;5053224;28;19921;-77
2021/05/30 04:31:41;;;;;;;;;;;;;;;11.72;97.40;93217.28;5053210;28;19921;-78
2021/05/30 04:34:07;;;;;;;;;;;;;;;11.83;96.42;93217.56;5052135;28;20399;-78
2021/05/30 04:36:34;;;;;;;;;;;;;;;11.93;95.19;93212.69;5054848;28;19921;-77
2021/05/30 04:38:59;;;;;;;;;;;;;;;12.00;95.38;93212.59;5053015;28;19920;-78
2021/05/30 04:41:26;;;;;;;;;;;;;;;12.06;93.73;93214.34;5053075;28;19932;-78
2021/05/30 04:43:52;;;;;;;;;;;;;;;12.11;93.48;93208.53;5053186;28;19920;-78
2021/05/30 04:46:18;;;;;;;;;;;;;;;12.24;93.22;93210.13;5053197;28;19920;-77
2021/05/30 04:48:45;;;;;;;;;;;;;;;12.24;92.82;93210.13;5053030;28;19924;-79
2021/05/30 04:51:13;;;;;;;;;;;;;;;12.35;93.70;93200.88;5052702;28;19944;-79
2021/05/30 04:53:40;;;;;;;;;;;;;;;12.46;93.17;93209.63;5053139;28;20288;-79
2021/05/30 04:56:07;;;;;;;;;;;;;;;12.56;93.29;93195.19;5052642;28;19921;-79
2021/05/30 04:58:33;;;;;;;;;;;;;;;12.71;93.23;93193.97;5052806;28;19920;-79
2021/05/30 05:00:59;;;;;;;;;;;;;;;12.81;91.88;93193.41;5053113;28;19925;-80
2021/05/30 05:03:25;;;;;;;;;;;;;;;12.97;90.57;93194.56;5052436;28;20319;-79
2021/05/30 05:05:53;;;;;;;;;;;;;;;13.05;89.71;93198.59;5052637;28;19936;-79
2021/05/30 05:08:20;;;;;;;;;;;;;;;13.16;89.09;93195.22;5052746;28;19927;-79
2021/05/30 05:10:46;;;;;;;;;;;;;;;13.30;88.69;93198.34;5052273;28;19932;-80
2021/05/30 05:13:13;;;;;;;;;;;;;;;13.38;89.21;93201.59;5066530;28;19935;-80
2021/05/30 05:15:39;;;;;;;;;;;;;;;13.45;88.03;93200.47;5072639;28;19948;-80
2021/05/30 05:18:12;;;;;;;;;;;;;;;13.48;88.12;93201.84;5072256;28;19931;-79
2021/05/30 05:20:38;;;;;;;;;;;;;;;13.55;88.08;93212.81;5072414;28;19925;-79
2021/05/30 05:23:05;;;;;;;;;;;;;;;13.68;87.62;93209.19;5071444;28;19935;-79
2021/05/30 05:25:34;;;;;;;;;;;;;;;13.85;86.91;93216.97;5072445;28;19924;-79
2021/05/30 05:28:00;;;;;;;;;;;;;;;13.93;86.40;93212.50;5072459;28;20023;-80
2021/05/30 05:30:26;;;;;;;;;;;;;;;14.01;85.73;93214.69;5072253;28;19966;-80
2021/05/30 05:32:52;;;;;;;;;;;;;;;14.08;85.71;93217.94;5072078;28;20368;-79
2021/05/30 05:35:18;;;;;;;;;;;;;;;14.16;84.64;93216.75;5072002;28;20372;-82
2021/05/30 05:37:45;;;;;;;;;;;;;;;14.22;84.18;93213.28;5071635;28;19924;-80
2021/05/30 05:40:12;;;;;;;;;;;;;;;14.34;84.03;93215.03;5072152;28;19982;-80
2021/05/30 05:42:39;;;;;;;;;;;;;;;14.40;82.27;93222.59;5063359;28;19921;-80
2021/05/30 05:45:05;;;;;;;;;;;;;;;14.53;83.17;93221.53;5051709;28;20447;-80
2021/05/30 05:47:31;;;;;;;;;;;;;;;14.58;80.43;93220.81;5052130;28;19921;-80
2021/05/30 05:49:57;;;;;;;;;;;;;;;14.69;80.39;93216.63;5051682;28;19974;-80
2021/05/30 05:52:23;;;;;;;;;;;;;;;14.69;78.61;93221.78;5051601;28;19925;-80
2021/05/30 05:54:50;;;;;;;;;;;;;;;14.66;77.24;93222.25;5051968;28;19921;-80
2021/05/30 05:57:17;;;;;;;;;;;;;;;14.66;75.59;93225.63;5051595;28;19921;-80
2021/05/30 05:59:43;;;;;;;;;;;;;;;14.55;77.84;93223.88;5051699;28;20315;-80
2021/05/30 06:02:09;;;;;;;;;;;;;;;14.65;77.21;93233.59;5051715;28;19921;-80
2021/05/30 06:04:35;;;;;;;;;;;;;;;14.79;75.20;93227.16;5051823;28;19929;-80
2021/05/30 06:07:01;;;;;;;;;;;;;;;14.58;72.41;93233.75;5051716;28;19925;-80
2021/05/30 06:09:27;;;;;;;;;;;;;;;14.72;73.62;93226.47;5051251;28;19921;-80
2021/05/30 06:11:53;;;;;;;;;;;;;;;14.96;72.29;93236.72;5054508;28;19920;-80
2021/05/30 06:14:20;;;;;;;;;;;;;;;15.03;71.62;93228.75;5071500;28;20011;-80
2021/05/30 06:16:46;;;;;;;;;;;;;;;15.28;70.00;93230.16;5071024;28;19920;-80
2021/05/30 06:19:13;;;;;;;;;;;;;;;15.33;67.51;93230.22;5071272;28;19924;-81
2021/05/30 06:21:39;;;;;;;;;;;;;;;15.45;65.45;93235.28;5070977;28;19921;-81
2021/05/30 06:24:05;;;;;;;;;;;;;;;15.68;69.05;93229.13;5070773;28;19967;-82
2021/05/30 06:26:31;;;;;;;;;;;;;;;15.85;67.56;93230.84;5061057;28;19975;-82
2021/05/30 06:28:57;;;;;;;;;;;;;;;15.79;65.21;93235.22;5049084;28;20360;-81
2021/05/30 06:31:24;;;;;;;;;;;;;;;15.76;60.80;93241.66;5050188;28;19920;-81
2021/05/30 06:33:50;;;;;;;;;;;;;;;15.43;64.52;93232.16;5051080;28;19925;-81
2021/05/30 06:36:18;;;;;;;;;;;;;;;15.74;63.47;93233.31;5050550;28;20287;-81
2021/05/30 06:38:44;;;;;;;;;;;;;;;15.89;63.54;93235.31;5051165;28;19932;-81
2021/05/30 06:41:10;;;;;;;;;;;;;;;15.91;64.55;93240.25;5050801;28;20268;-81
2021/05/30 06:43:36;;;;;;;;;;;;;;;15.92;64.16;93238.47;5050149;28;19931;-81
2021/05/30 06:46:02;;;;;;;;;;;;;;;16.07;64.36;93243.84;5050491;28;19932;-80
2021/05/30 06:48:29;;;;;;;;;;;;;;;15.82;67.24;93247.66;5050970;28;20303;-81
2021/05/30 06:53:36;;;;;;;;;;;;;;;15.76;66.23;93241.66;5030346;28;20008;-80
2021/05/30 06:56:02;;;;;;;;;;;;;;;15.94;64.05;93252.75;5030453;28;19925;-80
2021/05/30 06:58:28;;;;;;;;;;;;;;;15.95;65.01;93250.94;5030100;28;19952;-80
2021/05/30 07:00:54;;;;;;;;;;;;;;;15.96;64.74;93247.34;5030865;28;19925;-80
2021/05/30 07:03:20;;;;;;;;;;;;;;;15.95;65.27;93253.53;5030343;28;19921;-81
2021/05/30 07:05:47;;;;;;;;;;;;;;;16.07;64.12;93258.59;5030348;28;19928;-81
2021/05/30 07:08:16;;;;;;;;;;;;;;;16.14;64.32;93254.00;5030150;28;19935;-81
2021/05/30 07:10:42;;;;;;;;;;;;;;;16.23;64.89;93260.31;5030117;28;19921;-81
2021/05/30 07:13:08;;;;;;;;;;;;;;;16.15;63.37;93256.34;5056752;28;19920;-80
2021/05/30 07:15:34;;;;;;;;;;;;;;;16.38;65.12;93257.09;5069810;28;19924;-80
2021/05/30 07:18:00;;;;;;;;;;;;;;;16.60;60.95;93252.88;5070075;28;19924;-81
2021/05/30 07:20:26;;;;;;;;;;;;;;;16.34;61.58;93256.03;5070157;28;19970;-80
2021/05/30 07:22:53;;;;;;;;;;;;;;;16.49;63.06;93245.03;5070439;28;19924;-80
2021/05/30 07:25:19;;;;;;;;;;;;;;;16.23;61.17;93247.38;5070061;28;19983;-81
2021/05/30 07:27:45;;;;;;;;;;;;;;;16.53;63.39;93245.31;5069638;28;20384;-81
2021/05/30 07:30:12;;;;;;;;;;;;;;;16.90;61.85;93246.41;5070185;28;20319;-82
2021/05/30 07:32:38;;;;;;;;;;;;;;;17.05;60.17;93246.56;5069838;28;19926;-81
2021/05/30 07:35:05;;;;;;;;;;;;;;;17.29;61.25;93237.59;5069951;28;19924;-82
2021/05/30 07:37:31;;;;;;;;;;;;;;;17.73;61.09;93229.53;5070034;28;19920;-82
2021/05/30 07:39:58;;;;;;;;;;;;;;;17.39;55.75;93226.50;5069827;28;19925;-81
2021/05/30 07:42:24;;;;;;;;;;;;;;;16.99;57.61;93231.16;5063141;28;20435;-83
2021/05/30 07:44:50;;;;;;;;;;;;;;;17.44;57.49;93231.72;5049456;28;19927;-82
2021/05/30 07:47:16;;;;;;;;;;;;;;;17.72;55.65;93224.56;5049328;28;19933;-81
2021/05/30 07:49:42;;;;;;;;;;;;;;;18.07;55.90;93217.19;5049411;28;20368;-81
2021/05/30 07:52:08;;;;;;;;;;;;;;;18.03;54.31;93209.88;5049494;28;19927;-81
2021/05/30 07:54:34;;;;;;;;;;;;;;;18.22;56.18;93213.84;5049525;28;19929;-80
2021/05/30 07:57:01;;;;;;;;;;;;;;;18.22;53.98;93216.44;5045598;28;19921;-81
2021/05/30 07:59:27;;;;;;;;;;;;;;;18.10;54.47;93217.44;5047685;28;19929;-81
2021/05/30 08:01:55;;;;;;;;;;;;;;;17.62;55.60;93220.13;5049051;28;19920;-81
2021/05/30 08:04:21;;;;;;;;;;;;;;;17.92;52.07;93212.69;5049727;28;19925;-84
2021/05/30 08:06:47;;;;;;;;;;;;;;;17.64;52.92;93210.28;5049631;28;19921;-83
2021/05/30 08:09:13;;;;;;;;;;;;;;;18.00;53.55;93214.78;5049602;28;19921;-80
2021/05/30 08:11:39;;;;;;;;;;;;;;;17.98;53.97;93209.09;5050477;28;19925;-81
2021/05/30 08:14:06;;;;;;;;;;;;;;;17.68;51.86;93213.16;5069508;28;20271;-81
2021/05/30 08:16:32;;;;;;;;;;;;;;;17.67;52.72;93209.75;5069303;28;20344;-83
2021/05/30 08:18:58;;;;;;;;;;;;;;;17.56;53.78;93205.56;5069517;28;19924;-82
2021/05/30 08:21:24;;;;;;;;;;;;;;;17.80;53.89;93203.31;5068880;28;19979;-80
2021/05/30 08:23:50;;;;;;;;;;;;;;;18.23;53.10;93210.22;5069177;28;19924;-81
2021/05/30 08:26:17;;;;;;;;;;;;;;;18.52;51.84;93207.13;5069664;28;19924;-81
2021/05/30 08:28:43;;;;;;;;;;;;;;;18.80;48.93;93207.66;5069529;28;19920;-82
2021/05/30 08:31:10;;;;;;;;;;;;;;;18.47;51.22;93207.13;5068463;28;19947;-81
2021/05/30 08:33:36;;;;;;;;;;;;;;;18.85;50.17;93207.66;5069522;28;19940;-82
2021/05/30 08:36:02;;;;;;;;;;;;;;;19.05;50.41;93206.09;5069008;28;20415;-81
2021/05/30 08:38:28;;;;;;;;;;;;;;;18.97;48.52;93215.19;5069279;28;19924;-81
2021/05/30 08:40:55;;;;;;;;;;;;;;;18.23;49.36;93212.81;5069078;28;19924;-81
2021/05/30 08:43:21;;;;;;;;;;;;;;;18.35;51.09;93215.97;5054802;28;20007;-82
2021/05/30 08:45:47;;;;;;;;;;;;;;;17.50;50.12;93218.50;5048862;28;19925;-82
2021/05/30 08:48:14;;;;;;;;;;;;;;;18.19;51.69;93203.97;5049243;28;19921;-81
2021/05/30 08:50:40;;;;;;;;;;;;;;;17.92;50.93;93203.09;5048878;28;19932;-82
2021/05/30 08:53:07;;;;;;;;;;;;;;;17.57;52.46;93213.09;5049166;28;19921;-82
2021/05/30 08:55:33;;;;;;;;;;;;;;;17.32;53.56;93203.38;5048905;28;19920;-81
2021/05/30 08:57:59;;;;;;;;;;;;;;;17.14;54.12;93207.16;5051838;28;19925;-81
2021/05/30 09:00:27;;;;;;;;;;;;;;;16.87;55.66;93208.75;5052441;28;19928;-81
2021/05/30 09:03:12;;;;;;;;;;;;;;;17.43;56.62;93204.97;5052635;28;20364;-81
2021/05/30 09:05:39;;;;;;;;;;;;;;;17.03;56.48;93211.50;5052439;28;19924;-81
2021/05/30 09:08:05;;;;;;;;;;;;;;;16.59;56.22;93210.63;5052615;28;19928;-81
2021/05/30 09:10:31;;;;;;;;;;;;;;;16.38;54.11;93209.69;5052690;28;19921;-82
2021/05/30 09:13:05;;;;;;;;;;;;;;;16.98;57.84;93209.59;5064589;28;20280;-82
2021/05/30 09:15:49;;;;;;;;;;;;;;;17.45;52.46;93202.91;5072598;28;19921;-82
2021/05/30 09:18:16;;;;;;;;;;;;;;;17.74;52.33;93199.91;5072216;28;19927;-82
2021/05/30 09:20:56;;;;;;;;;;;;;;;18.29;56.84;93193.59;5072441;28;19966;-82
2021/05/30 09:23:29;;;;;;;;;;;;;;;17.85;53.16;93192.16;5072284;28;19921;-82
2021/05/30 09:26:06;;;;;;;;;;;;;;;17.83;52.19;93192.41;5072140;28;19920;-82
2021/05/30 09:28:32;;;;;;;;;;;;;;;18.11;54.08;93185.25;5072487;28;19924;-81
2021/05/30 09:31:01;;;;;;;;;;;;;;;18.46;54.88;93185.53;5072392;28;19920;-82
2021/05/30 09:33:29;;;;;;;;;;;;;;;18.19;52.78;93188.38;5072013;28;19966;-84
2021/05/30 09:36:00;;;;;;;;;;;;;;;17.70;54.17;93188.47;5071908;28;19924;-82
2021/05/30 09:38:29;;;;;;;;;;;;;;;17.41;54.75;93188.09;5071870;28;19921;-82
2021/05/30 09:40:56;;;;;;;;;;;;;;;17.95;54.31;93183.63;5071869;28;19924;-81
2021/05/30 09:43:24;;;;;;;;;;;;;;;18.50;52.55;93173.56;5057433;28;19921;-81
2021/05/30 09:45:57;;;;;;;;;;;;;;;18.15;51.97;93170.69;5051988;28;19974;-81
2021/05/30 09:48:23;;;;;;;;;;;;;;;18.40;51.53;93168.38;5052361;28;20386;-82
2021/05/30 09:51:03;;;;;;;;;;;;;;;19.01;53.33;93163.38;5051720;28;20364;-81
2021/05/30 09:53:31;;;;;;;;;;;;;;;19.41;49.73;93153.16;5051790;28;19921;-81
2021/05/30 09:55:57;;;;;;;;;;;;;;;19.98;49.71;93147.72;5051552;28;19925;-81
2021/05/30 09:58:24;;;;;;;;;;;;;;;20.12;50.69;93140.84;5051917;28;20279;-81
2021/05/30 10:00:58;;;;;;;;;;;;;;;20.42;48.86;93144.28;5051858;28;19924;-83
2021/05/30 10:03:25;;;;;;;;;;;;;;;19.84;50.18;93137.06;5051527;28;19935;-81
2021/05/30 10:05:51;;;;;;;;;;;;;;;20.43;48.08;93129.44;5051821;28;19975;-82
2021/05/30 10:08:18;;;;;;;;;;;;;;;20.48;47.52;93118.16;5051510;28;19967;-82
2021/05/30 10:10:45;;;;;;;;;;;;;;;20.09;46.27;93128.34;5051642;28;19979;-83
2021/05/30 10:13:11;;;;;;;;;;;;;;;19.23;49.89;93118.84;5065602;28;19925;-82
2021/05/30 10:15:38;;;;;;;;;;;;;;;20.22;50.33;93123.59;5071239;28;19924;-82
2021/05/30 10:18:11;;;;;;;;;;;;;;;20.49;45.08;93125.72;5070609;28;19925;-83
2021/05/30 10:20:38;;;;;;;;;;;;;;;20.86;44.82;93117.59;5071189;28;20299;-82
2021/05/30 10:23:31;;;;;;;;;;;;;;;21.43;44.61;93115.16;5070943;28;19925;-83
2021/05/30 10:26:16;;;;;;;;;;;;;;;20.21;46.37;93122.81;5070542;28;20332;-82
2021/05/30 10:28:46;;;;;;;;;;;;;;;19.76;45.52;93120.97;5071184;28;20383;-82
2021/05/30 10:31:17;;;;;;;;;;;;;;;20.41;45.48;93111.44;5071178;28;20010;-81
2021/05/30 10:33:47;;;;;;;;;;;;;;;20.64;44.61;93122.19;5072650;28;19920;-81
2021/05/30 10:36:13;;;;;;;;;;;;;;;20.32;45.54;93112.31;5071712;28;19924;-81
2021/05/30 10:38:40;;;;;;;;;;;;;;;20.63;47.29;93118.03;5071039;28;20386;-82
2021/05/30 10:41:14;;;;;;;;;;;;;;;21.05;44.86;93108.00;5070998;28;19971;-82
2021/05/30 10:43:40;;;;;;;;;;;;;;;20.81;45.39;93100.13;5057584;28;20376;-81
2021/05/30 10:46:07;;;;;;;;;;;;;;;21.27;47.49;93092.88;5049734;28;19968;-83
2021/05/30 10:48:34;;;;;;;;;;;;;;;20.73;47.02;93098.88;5049510;28;19920;-82
2021/05/30 10:51:07;;;;;;;;;;;;;;;19.44;48.36;93111.72;5050505;28;19921;-83
2021/05/30 10:53:35;;;;;;;;;;;;;;;20.18;47.92;93110.28;5051305;28;20292;-82
2021/05/30 10:56:19;;;;;;;;;;;;;;;21.13;47.75;93101.41;5050824;28;20013;-82
2021/05/30 10:58:45;;;;;;;;;;;;;;;22.00;43.36;93106.59;5050368;28;19991;-82
2021/05/30 11:01:26;;;;;;;;;;;;;;;21.29;47.83;93112.44;5050300;28;19927;-82
2021/05/30 11:03:52;;;;;;;;;;;;;;;19.79;51.05;93119.66;5050563;28;19921;-83
2021/05/30 11:06:33;;;;;;;;;;;;;;;19.43;51.06;93118.00;5050183;28;19925;-83
2021/05/30 11:08:59;;;;;;;;;;;;;;;18.87;50.15;93122.28;5050225;28;19925;-83
2021/05/30 11:11:29;;;;;;;;;;;;;;;18.06;53.91;93119.44;5050359;28;20277;-86
2021/05/30 11:13:56;;;;;;;;;;;;;;;17.49;56.04;93120.88;5050555;28;20277;-84
2021/05/30 11:16:23;;;;;;;;;;;;;;;17.56;55.77;93119.84;5049805;28;19921;-83
2021/05/30 11:18:56;;;;;;;;;;;;;;;17.22;58.10;93123.63;5050116;28;19925;-85
2021/05/30 11:21:26;;;;;;;;;;;;;;;17.68;59.09;93111.84;5049931;28;19921;-83
2021/05/30 11:23:52;;;;;;;;;;;;;;;18.02;55.50;93109.53;5050312;28;19925;-84
2021/05/30 11:26:18;;;;;;;;;;;;;;;17.87;54.16;93110.31;5050199;28;19920;-85
2021/05/30 11:28:47;;;;;;;;;;;;;;;18.15;55.17;93108.28;5050074;28;19924;-83
2021/05/30 11:31:14;;;;;;;;;;;;;;;18.49;55.38;93114.00;5050171;28;19943;-83
2021/05/30 11:33:42;;;;;;;;;;;;;;;18.70;55.47;93110.34;5050226;28;20011;-81
2021/05/30 11:36:13;;;;;;;;;;;;;;;18.36;53.26;93115.31;5049238;28;19953;-82
2021/05/30 11:38:42;;;;;;;;;;;;;;;18.24;54.22;93113.75;5049994;28;19928;-82
2021/05/30 11:41:11;;;;;;;;;;;;;;;18.21;54.73;93114.28;5049332;28;20261;-81
2021/05/30 11:43:37;;;;;;;;;;;;;;;18.32;55.23;93115.06;5049989;28;20007;-82
2021/05/30 11:46:11;;;;;;;;;;;;;;;17.83;54.94;93108.50;5049696;28;20260;-83
2021/05/30 11:48:37;;;;;;;;;;;;;;;17.49;57.19;93114.88;5049646;28;19931;-82
2021/05/30 11:51:04;;;;;;;;;;;;;;;17.54;58.84;93116.72;5049457;28;19920;-82
2021/05/30 11:53:38;;;;;;;;;;;;;;;17.84;57.89;93123.03;5049889;28;19925;-82
2021/05/30 11:56:06;;;;;;;;;;;;;;;18.26;55.32;93126.50;5049605;28;19929;-82
2021/05/30 11:58:33;;;;;;;;;;;;;;;18.00;54.59;93123.84;5049304;28;19925;-84
2021/05/30 12:01:00;;;;;;;;;;;;;;;17.89;55.33;93123.03;5049602;28;20280;-82
2021/05/30 12:03:27;;;;;;;;;;;;;;;17.78;56.54;93119.66;5049634;28;19921;-85
2021/05/30 12:05:57;;;;;;;;;;;;;;;17.85;55.83;93114.19;5049707;28;20127;-85
2021/05/30 12:08:23;;;;;;;;;;;;;;;17.70;54.73;93123.53;5049639;28;19928;-86
2021/05/30 12:10:50;;;;;;;;;;;;;;;17.62;56.25;93119.63;5049519;28;19931;-85
2021/05/30 12:13:26;;;;;;;;;;;;;;;17.82;58.16;93119.91;5064506;28;19951;-85
2021/05/30 12:15:53;;;;;;;;;;;;;;;17.61;56.67;93083.50;5071496;28;20446;-86
2021/05/30 12:18:21;;;;;;;;;;;;;;;17.95;55.11;93121.25;5069454;28;19921;-85
2021/05/30 12:20:49;;;;;;;;;;;;;;;17.83;56.22;93122.25;5069089;28;19960;-86
2021/05/30 12:23:16;;;;;;;;;;;;;;;17.99;55.91;93122.28;5069359;28;19927;-85
2021/05/30 12:25:49;;;;;;;;;;;;;;;18.25;55.12;93125.72;5069531;28;19920;-85
2021/05/30 12:28:16;;;;;;;;;;;;;;;18.41;52.56;93117.91;5069555;28;19924;-86
2021/05/30 12:30:42;;;;;;;;;;;;;;;18.23;55.33;93114.03;5070306;28;19927;-85
2021/05/30 12:33:08;;;;;;;;;;;;;;;18.16;53.63;93112.44;5073130;28;19920;-85
2021/05/30 12:35:41;;;;;;;;;;;;;;;18.49;54.44;93108.81;5073192;28;19951;-86
2021/05/30 12:38:11;;;;;;;;;;;;;;;18.63;53.31;93107.25;5072858;28;20011;-87
2021/05/30 12:40:37;;;;;;;;;;;;;;;18.73;53.17;93103.06;5072942;28;19925;-85
2021/05/30 12:43:03;;;;;;;;;;;;;;;17.86;54.59;93110.56;5060824;28;20376;-85
2021/05/30 12:45:30;;;;;;;;;;;;;;;17.77;56.83;93112.88;5052794;28;19920;-86
2021/05/30 12:47:57;;;;;;;;;;;;;;;18.13;53.79;93099.97;5071666;28;19950;-85